MST,Max TemperatureF,Mean TemperatureF,Min TemperatureF,Max Dew PointF,MeanDew PointF,Min DewpointF,Max Humidity, Mean Humidity, Min Humidity, Max Sea Level PressureIn, Mean Sea Level PressureIn, Min Sea Level PressureIn, Max VisibilityMiles, Mean VisibilityMiles, Min VisibilityMiles, Max Wind SpeedMPH, Mean Wind SpeedMPH, Max Gust SpeedMPH,PrecipitationIn, CloudCover, Events, WindDirDegrees
2012-11-1,64,48,31,38,32,27,89,60,30,30.01,29.92,29.81,10,10,10,13,3,17,0.00,0,,223
2012-11-2,60,47,34,35,29,25,76,52,27,30.16,29.98,29.80,10,10,10,18,8,26,0.00,0,,320
2012-11-3,60,43,25,32,27,23,92,60,28,30.24,30.16,30.09,10,10,10,7,4,8,0.00,0,,288
2012-11-4,62,46,30,36,29,24,78,52,25,30.28,30.16,30.09,10,10,10,25,9,33,0.00,3,,311
2012-11-5,64,51,38,36,34,32,79,56,32,30.22,30.11,29.99,10,10,10,13,6,14,0.00,2,,287
2012-11-6,65,49,32,36,32,28,82,55,28,30.26,30.15,30.08,10,10,10,13,6,16,0.00,0,,335
2012-11-7,77,51,25,34,24,18,92,53,13,30.09,29.91,29.78,10,10,10,25,7,33,0.00,0,,277
2012-11-8,56,45,34,32,29,21,82,60,38,30.03,29.88,29.79,10,10,10,16,9,23,0.00,0,,98
2012-11-9,51,41,31,35,33,31,100,76,52,29.78,29.66,29.53,10,8,1,21,14,26,0.00,3,,108
2012-11-10,35,24,13,34,26,7,100,87,73,30.00,29.65,29.51,10,4,0,21,10,26,0.05,7,Fog-Snow,352
2012-11-11,27,16,4,17,9,-1,88,76,63,30.33,30.19,30.03,10,10,10,13,4,17,T,0,,283
2012-11-12,46,25,3,17,12,2,92,62,31,30.41,30.33,30.24,10,10,10,22,8,29,0.00,0,,279
2012-11-13,51,38,24,26,20,12,81,56,30,30.28,30.23,30.17,10,10,10,23,8,30,0.00,3,,265
2012-11-14,57,39,20,31,25,18,88,57,26,30.25,30.18,30.09,10,10,10,24,8,32,0.00,3,,290
2012-11-15,51,40,29,28,26,23,82,59,36,30.40,30.33,30.20,10,10,10,15,8,20,0.00,2,,185
2012-11-16,65,45,24,30,25,19,92,57,22,30.26,30.10,29.99,10,10,10,12,7,17,0.00,1,,110
2012-11-17,62,49,35,35,32,27,70,51,31,30.09,30.01,29.96,10,10,10,18,7,25,0.00,2,,258
2012-11-18,65,47,29,33,30,26,89,58,26,29.99,29.91,29.82,10,10,10,26,10,38,0.00,1,,168
2012-11-19,64,46,28,35,29,26,85,56,27,30.20,30.12,29.99,10,10,10,21,6,30,0.00,0,,266
2012-11-20,68,48,28,27,25,22,78,49,19,30.16,30.07,29.94,10,10,10,29,10,36,0.00,0,,209
2012-11-21,69,51,33,24,19,13,64,38,11,29.96,29.85,29.76,10,10,10,20,7,26,0.00,0,,271
2012-11-22,56,41,25,31,17,6,76,47,18,30.53,30.15,29.76,10,10,10,30,15,40,0.00,1,,321
2012-11-23,48,31,14,16,14,10,80,53,26,30.60,30.43,30.19,10,10,8,10,4,13,0.00,0,,140
2012-11-24,64,43,22,22,17,13,68,41,14,30.14,29.96,29.88,10,10,10,28,9,36,0.00,0,,325
2012-11-25,50,40,30,32,27,20,89,64,39,30.10,29.95,29.83,10,9,2,25,9,31,T,6,Snow,67
2012-11-26,35,30,24,27,24,20,92,78,64,30.44,30.30,30.12,10,8,2,18,6,23,0.04,6,Snow,113
2012-11-27,49,31,12,27,18,9,92,64,36,30.33,30.23,30.13,10,10,10,13,3,14,0.00,0,,43
2012-11-28,56,37,17,27,19,14,84,54,24,30.25,30.13,30.01,10,10,10,16,4,22,0.00,0,,150
2012-11-29,64,44,23,26,22,17,74,47,19,30.05,29.97,29.90,10,10,10,36,9,43,0.00,0,,296
2012-11-30,67,47,26,28,24,22,81,51,20,30.03,29.88,29.71,10,10,10,18,7,23,0.00,0,,172